sensor_id;sensor_type;location;lat;lon;timestamp;temperature;humidity
7704;DHT22;3894;49.700;10.770;2022-12-29T00:01:16;5.80;99.90
7704;DHT22;3894;49.700;10.770;2022-12-29T00:03:42;5.80;99.90
7704;DHT22;3894;49.700;10.770;2022-12-29T00:06:10;5.90;99.90
7704;DHT22;3894;49.700;10.770;2022-12-29T00:08:35;6.00;99.90
7704;DHT22;3894;49.700;10.770;2022-12-29T00:11:08;6.00;99.90
7704;DHT22;3894;49.700;10.770;2022-12-29T00:13:34;6.00;99.90
7704;DHT22;3894;49.700;10.770;2022-12-29T00:16:18;6.00;99.90
7704;DHT22;3894;49.700;10.770;2022-12-29T00:18:44;6.00;99.90
7704;DHT22;3894;49.700;10.770;2022-12-29T00:21:17;6.10;99.90
7704;DHT22;3894;49.700;10.770;2022-12-29T00:24:02;6.10;99.90
7704;DHT22;3894;49.700;10.770;2022-12-29T00:26:55;6.10;99.90
7704;DHT22;3894;49.700;10.770;2022-12-29T00:29:40;6.20;99.90
7704;DHT22;3894;49.700;10.770;2022-12-29T00:32:24;6.20;99.90
7704;DHT22;3894;49.700;10.770;2022-12-29T00:35:10;6.20;99.90
7704;DHT22;3894;49.700;10.770;2022-12-29T00:37:42;6.30;99.90
7704;DHT22;3894;49.700;10.770;2022-12-29T00:40:27;6.30;99.90
7704;DHT22;3894;49.700;10.770;2022-12-29T00:43:11;6.40;99.90
7704;DHT22;3894;49.700;10.770;2022-12-29T00:45:55;6.40;99.90
7704;DHT22;3894;49.700;10.770;2022-12-29T00:48:22;6.40;99.90
7704;DHT22;3894;49.700;10.770;2022-12-29T00:51:06;6.30;99.90
7704;DHT22;3894;49.700;10.770;2022-12-29T00:53:33;6.30;99.90
7704;DHT22;3894;49.700;10.770;2022-12-29T00:55:59;6.40;99.90
7704;DHT22;3894;49.700;10.770;2022-12-29T00:58:27;6.50;99.90
7704;DHT22;3894;49.700;10.770;2022-12-29T01:01:03;6.50;99.90
7704;DHT22;3894;49.700;10.770;2022-12-29T01:03:29;6.50;99.90
7704;DHT22;3894;49.700;10.770;2022-12-29T01:05:55;6.50;99.90
7704;DHT22;3894;49.700;10.770;2022-12-29T01:08:20;6.50;99.90
7704;DHT22;3894;49.700;10.770;2022-12-29T01:10:46;6.50;99.90
7704;DHT22;3894;49.700;10.770;2022-12-29T01:13:11;6.50;99.90
7704;DHT22;3894;49.700;10.770;2022-12-29T01:15:37;6.50;99.90
7704;DHT22;3894;49.700;10.770;2022-12-29T01:18:02;6.60;99.90
7704;DHT22;3894;49.700;10.770;2022-12-29T01:20:28;6.60;99.90
7704;DHT22;3894;49.700;10.770;2022-12-29T01:22:54;6.60;99.90
7704;DHT22;3894;49.700;10.770;2022-12-29T01:25:20;6.70;99.90
7704;DHT22;3894;49.700;10.770;2022-12-29T01:27:45;6.70;99.90
7704;DHT22;3894;49.700;10.770;2022-12-29T01:30:11;6.80;99.90
7704;DHT22;3894;49.700;10.770;2022-12-29T01:32:37;6.80;99.90
7704;DHT22;3894;49.700;10.770;2022-12-29T01:35:03;6.90;99.90
7704;DHT22;3894;49.700;10.770;2022-12-29T01:37:29;6.90;99.90
7704;DHT22;3894;49.700;10.770;2022-12-29T01:39:54;6.90;99.90
7704;DHT22;3894;49.700;10.770;2022-12-29T01:42:23;6.90;99.90
7704;DHT22;3894;49.700;10.770;2022-12-29T01:45:09;6.90;99.90
7704;DHT22;3894;49.700;10.770;2022-12-29T01:47:42;7.00;99.90
7704;DHT22;3894;49.700;10.770;2022-12-29T01:50:12;7.00;99.90
7704;DHT22;3894;49.700;10.770;2022-12-29T01:52:44;7.10;99.90
7704;DHT22;3894;49.700;10.770;2022-12-29T01:55:14;7.10;99.90
7704;DHT22;3894;49.700;10.770;2022-12-29T01:57:44;7.20;99.90
7704;DHT22;3894;49.700;10.770;2022-12-29T02:00:13;7.20;99.90
7704;DHT22;3894;49.700;10.770;2022-12-29T02:02:41;7.20;99.90
7704;DHT22;3894;49.700;10.770;2022-12-29T02:05:14;7.20;99.90
7704;DHT22;3894;49.700;10.770;2022-12-29T02:07:43;7.20;99.90
7704;DHT22;3894;49.700;10.770;2022-12-29T02:10:09;7.10;99.90
7704;DHT22;3894;49.700;10.770;2022-12-29T02:12:35;7.10;99.90
7704;DHT22;3894;49.700;10.770;2022-12-29T02:15:02;7.10;99.90
7704;DHT22;3894;49.700;10.770;2022-12-29T02:20:42;7.10;99.90
7704;DHT22;3894;49.700;10.770;2022-12-29T02:25:55;7.10;99.90
7704;DHT22;3894;49.700;10.770;2022-12-29T02:28:50;7.10;99.90
7704;DHT22;3894;49.700;10.770;2022-12-29T02:31:22;7.10;99.90
7704;DHT22;3894;49.700;10.770;2022-12-29T02:34:07;7.10;99.90
7704;DHT22;3894;49.700;10.770;2022-12-29T02:36:57;7.00;99.90
7704;DHT22;3894;49.700;10.770;2022-12-29T02:39:53;7.00;99.90
7704;DHT22;3894;49.700;10.770;2022-12-29T02:45:32;7.00;99.90
7704;DHT22;3894;49.700;10.770;2022-12-29T02:48:59;7.00;99.90
7704;DHT22;3894;49.700;10.770;2022-12-29T02:51:27;7.00;99.90
7704;DHT22;3894;49.700;10.770;2022-12-29T02:53:56;7.00;99.90
7704;DHT22;3894;49.700;10.770;2022-12-29T02:57:00;6.90;99.90
7704;DHT22;3894;49.700;10.770;2022-12-29T02:59:26;6.90;99.90
7704;DHT22;3894;49.700;10.770;2022-12-29T03:10:15;6.90;99.90
7704;DHT22;3894;49.700;10.770;2022-12-29T03:13:16;6.80;99.90
7704;DHT22;3894;49.700;10.770;2022-12-29T03:16:14;6.80;99.90
7704;DHT22;3894;49.700;10.770;2022-12-29T03:24:38;6.70;99.90
7704;DHT22;3894;49.700;10.770;2022-12-29T03:27:11;6.70;99.90
7704;DHT22;3894;49.700;10.770;2022-12-29T03:30:00;6.70;99.90
7704;DHT22;3894;49.700;10.770;2022-12-29T03:32:33;6.60;99.90
7704;DHT22;3894;49.700;10.770;2022-12-29T03:35:01;6.60;99.90
7704;DHT22;3894;49.700;10.770;2022-12-29T03:37:40;6.60;99.90
7704;DHT22;3894;49.700;10.770;2022-12-29T03:40:07;6.60;99.90
7704;DHT22;3894;49.700;10.770;2022-12-29T03:42:34;6.50;99.90
7704;DHT22;3894;49.700;10.770;2022-12-29T03:45:00;6.60;99.90
7704;DHT22;3894;49.700;10.770;2022-12-29T03:47:26;6.50;99.90
7704;DHT22;3894;49.700;10.770;2022-12-29T03:49:52;6.50;99.90
7704;DHT22;3894;49.700;10.770;2022-12-29T03:52:18;6.50;99.90
7704;DHT22;3894;49.700;10.770;2022-12-29T03:54:44;6.50;99.90
7704;DHT22;3894;49.700;10.770;2022-12-29T03:57:10;6.50;99.90
7704;DHT22;3894;49.700;10.770;2022-12-29T03:59:36;6.50;99.90
7704;DHT22;3894;49.700;10.770;2022-12-29T04:02:02;6.50;99.90
7704;DHT22;3894;49.700;10.770;2022-12-29T04:04:27;6.50;99.90
7704;DHT22;3894;49.700;10.770;2022-12-29T04:06:53;6.50;99.90
7704;DHT22;3894;49.700;10.770;2022-12-29T04:09:18;6.50;99.90
7704;DHT22;3894;49.700;10.770;2022-12-29T04:11:44;6.60;99.90
7704;DHT22;3894;49.700;10.770;2022-12-29T04:14:10;6.60;99.90
7704;DHT22;3894;49.700;10.770;2022-12-29T04:16:35;6.60;99.90
7704;DHT22;3894;49.700;10.770;2022-12-29T04:19:04;6.70;99.90
7704;DHT22;3894;49.700;10.770;2022-12-29T04:21:30;6.70;99.90
7704;DHT22;3894;49.700;10.770;2022-12-29T04:23:55;6.80;99.90
7704;DHT22;3894;49.700;10.770;2022-12-29T04:26:21;6.70;99.90
7704;DHT22;3894;49.700;10.770;2022-12-29T04:28:46;6.80;99.90
7704;DHT22;3894;49.700;10.770;2022-12-29T04:31:12;6.80;99.90
7704;DHT22;3894;49.700;10.770;2022-12-29T04:33:37;6.80;99.90
7704;DHT22;3894;49.700;10.770;2022-12-29T04:36:03;6.80;99.90
7704;DHT22;3894;49.700;10.770;2022-12-29T04:38:29;6.70;99.90
7704;DHT22;3894;49.700;10.770;2022-12-29T04:40:54;6.60;99.90
7704;DHT22;3894;49.700;10.770;2022-12-29T04:43:20;6.50;99.90
7704;DHT22;3894;49.700;10.770;2022-12-29T04:45:47;6.50;99.90
7704;DHT22;3894;49.700;10.770;2022-12-29T04:48:13;6.50;99.90
7704;DHT22;3894;49.700;10.770;2022-12-29T04:50:39;6.40;99.90
7704;DHT22;3894;49.700;10.770;2022-12-29T04:53:05;6.40;99.90
7704;DHT22;3894;49.700;10.770;2022-12-29T04:55:31;6.40;99.90
7704;DHT22;3894;49.700;10.770;2022-12-29T04:57:56;6.40;99.90
7704;DHT22;3894;49.700;10.770;2022-12-29T05:00:22;6.40;99.90
7704;DHT22;3894;49.700;10.770;2022-12-29T05:02:48;6.40;99.90
7704;DHT22;3894;49.700;10.770;2022-12-29T05:05:13;6.30;99.90
7704;DHT22;3894;49.700;10.770;2022-12-29T05:07:39;6.40;99.90
7704;DHT22;3894;49.700;10.770;2022-12-29T05:10:06;6.40;99.90
7704;DHT22;3894;49.700;10.770;2022-12-29T05:12:33;6.40;99.90
7704;DHT22;3894;49.700;10.770;2022-12-29T05:14:59;6.40;99.90
7704;DHT22;3894;49.700;10.770;2022-12-29T05:17:25;6.40;99.90
7704;DHT22;3894;49.700;10.770;2022-12-29T05:19:50;6.40;99.90
7704;DHT22;3894;49.700;10.770;2022-12-29T05:22:16;6.40;99.90
7704;DHT22;3894;49.700;10.770;2022-12-29T05:24:42;6.30;99.90
7704;DHT22;3894;49.700;10.770;2022-12-29T05:27:07;6.30;99.90
7704;DHT22;3894;49.700;10.770;2022-12-29T05:29:33;6.30;99.90
7704;DHT22;3894;49.700;10.770;2022-12-29T05:31:58;6.30;99.90
7704;DHT22;3894;49.700;10.770;2022-12-29T05:34:24;6.20;99.90
7704;DHT22;3894;49.700;10.770;2022-12-29T05:36:50;6.20;99.90
7704;DHT22;3894;49.700;10.770;2022-12-29T05:39:16;6.20;99.90
7704;DHT22;3894;49.700;10.770;2022-12-29T05:41:41;6.10;99.90
7704;DHT22;3894;49.700;10.770;2022-12-29T05:44:07;6.10;99.90
7704;DHT22;3894;49.700;10.770;2022-12-29T05:46:32;6.10;99.90
7704;DHT22;3894;49.700;10.770;2022-12-29T05:48:58;6.00;99.90
7704;DHT22;3894;49.700;10.770;2022-12-29T05:51:23;6.00;99.90
7704;DHT22;3894;49.700;10.770;2022-12-29T05:53:49;6.00;99.90
7704;DHT22;3894;49.700;10.770;2022-12-29T05:56:15;6.00;99.90
7704;DHT22;3894;49.700;10.770;2022-12-29T05:58:41;6.00;99.90
7704;DHT22;3894;49.700;10.770;2022-12-29T06:01:07;6.00;99.90
7704;DHT22;3894;49.700;10.770;2022-12-29T06:03:32;6.10;99.90
7704;DHT22;3894;49.700;10.770;2022-12-29T06:05:58;6.10;99.90
7704;DHT22;3894;49.700;10.770;2022-12-29T06:08:23;6.10;99.90
7704;DHT22;3894;49.700;10.770;2022-12-29T06:10:49;6.20;99.90
7704;DHT22;3894;49.700;10.770;2022-12-29T06:13:15;6.10;99.90
7704;DHT22;3894;49.700;10.770;2022-12-29T06:15:40;6.20;99.90
7704;DHT22;3894;49.700;10.770;2022-12-29T06:18:06;6.20;99.90
7704;DHT22;3894;49.700;10.770;2022-12-29T06:20:32;6.20;99.90
7704;DHT22;3894;49.700;10.770;2022-12-29T06:22:57;6.20;99.90
7704;DHT22;3894;49.700;10.770;2022-12-29T06:25:23;6.30;99.90
7704;DHT22;3894;49.700;10.770;2022-12-29T06:27:48;6.30;99.90
7704;DHT22;3894;49.700;10.770;2022-12-29T06:30:14;6.30;99.90
7704;DHT22;3894;49.700;10.770;2022-12-29T06:32:40;6.30;99.90
7704;DHT22;3894;49.700;10.770;2022-12-29T06:35:06;6.30;99.90
7704;DHT22;3894;49.700;10.770;2022-12-29T06:37:32;6.30;99.90
7704;DHT22;3894;49.700;10.770;2022-12-29T06:39:57;6.30;99.90
7704;DHT22;3894;49.700;10.770;2022-12-29T06:42:23;6.20;99.90
7704;DHT22;3894;49.700;10.770;2022-12-29T06:44:48;6.30;99.90
7704;DHT22;3894;49.700;10.770;2022-12-29T06:47:14;6.20;99.90
7704;DHT22;3894;49.700;10.770;2022-12-29T06:49:40;6.20;99.90
7704;DHT22;3894;49.700;10.770;2022-12-29T06:52:06;6.30;99.90
7704;DHT22;3894;49.700;10.770;2022-12-29T06:54:31;6.30;99.90
7704;DHT22;3894;49.700;10.770;2022-12-29T06:56:57;6.20;99.90
7704;DHT22;3894;49.700;10.770;2022-12-29T06:59:23;6.20;99.90
7704;DHT22;3894;49.700;10.770;2022-12-29T07:01:49;6.20;99.90
7704;DHT22;3894;49.700;10.770;2022-12-29T07:04:15;6.20;99.90
7704;DHT22;3894;49.700;10.770;2022-12-29T07:06:40;6.20;99.90
7704;DHT22;3894;49.700;10.770;2022-12-29T07:09:07;6.20;99.90
7704;DHT22;3894;49.700;10.770;2022-12-29T07:11:33;6.20;99.90
7704;DHT22;3894;49.700;10.770;2022-12-29T07:13:58;6.20;99.90
7704;DHT22;3894;49.700;10.770;2022-12-29T07:16:24;6.20;99.90
7704;DHT22;3894;49.700;10.770;2022-12-29T07:18:50;6.20;99.90
7704;DHT22;3894;49.700;10.770;2022-12-29T07:21:16;6.30;99.90
7704;DHT22;3894;49.700;10.770;2022-12-29T07:23:42;6.30;99.90
7704;DHT22;3894;49.700;10.770;2022-12-29T07:26:11;6.30;99.90
7704;DHT22;3894;49.700;10.770;2022-12-29T07:28:37;6.30;99.90
7704;DHT22;3894;49.700;10.770;2022-12-29T07:31:16;6.30;99.90
7704;DHT22;3894;49.700;10.770;2022-12-29T07:33:42;6.30;99.90
7704;DHT22;3894;49.700;10.770;2022-12-29T07:36:09;6.30;99.90
7704;DHT22;3894;49.700;10.770;2022-12-29T07:38:35;6.30;99.90
7704;DHT22;3894;49.700;10.770;2022-12-29T07:41:00;6.30;99.90
7704;DHT22;3894;49.700;10.770;2022-12-29T07:43:26;6.40;99.90
7704;DHT22;3894;49.700;10.770;2022-12-29T07:45:52;6.40;99.90
7704;DHT22;3894;49.700;10.770;2022-12-29T07:48:17;6.40;99.90
7704;DHT22;3894;49.700;10.770;2022-12-29T07:50:43;6.40;99.90
7704;DHT22;3894;49.700;10.770;2022-12-29T07:53:09;6.40;99.90
7704;DHT22;3894;49.700;10.770;2022-12-29T07:55:34;6.40;99.90
7704;DHT22;3894;49.700;10.770;2022-12-29T07:58:00;6.40;99.90
7704;DHT22;3894;49.700;10.770;2022-12-29T08:00:29;6.40;99.90
7704;DHT22;3894;49.700;10.770;2022-12-29T08:02:54;6.50;99.90
7704;DHT22;3894;49.700;10.770;2022-12-29T08:05:20;6.50;99.90
7704;DHT22;3894;49.700;10.770;2022-12-29T08:07:46;6.60;99.90
7704;DHT22;3894;49.700;10.770;2022-12-29T08:10:13;6.60;99.90
7704;DHT22;3894;49.700;10.770;2022-12-29T08:12:41;6.60;99.90
7704;DHT22;3894;49.700;10.770;2022-12-29T08:15:11;6.70;99.90
7704;DHT22;3894;49.700;10.770;2022-12-29T08:17:37;6.60;99.90
7704;DHT22;3894;49.700;10.770;2022-12-29T08:20:04;6.60;99.90
7704;DHT22;3894;49.700;10.770;2022-12-29T08:22:30;6.70;99.90
7704;DHT22;3894;49.700;10.770;2022-12-29T08:24:55;6.70;99.90
7704;DHT22;3894;49.700;10.770;2022-12-29T08:27:21;6.70;99.90
7704;DHT22;3894;49.700;10.770;2022-12-29T08:29:47;6.70;99.90
7704;DHT22;3894;49.700;10.770;2022-12-29T08:32:12;6.70;99.90
7704;DHT22;3894;49.700;10.770;2022-12-29T08:34:38;6.80;99.90
7704;DHT22;3894;49.700;10.770;2022-12-29T08:37:04;6.80;99.90
7704;DHT22;3894;49.700;10.770;2022-12-29T08:39:29;6.80;99.90
7704;DHT22;3894;49.700;10.770;2022-12-29T08:41:55;6.90;99.90
7704;DHT22;3894;49.700;10.770;2022-12-29T08:44:21;6.90;99.90
7704;DHT22;3894;49.700;10.770;2022-12-29T08:46:46;6.90;99.90
7704;DHT22;3894;49.700;10.770;2022-12-29T08:49:12;6.90;99.90
7704;DHT22;3894;49.700;10.770;2022-12-29T08:51:38;7.00;99.90
7704;DHT22;3894;49.700;10.770;2022-12-29T08:54:03;7.00;99.90
7704;DHT22;3894;49.700;10.770;2022-12-29T08:56:29;7.10;99.90
7704;DHT22;3894;49.700;10.770;2022-12-29T08:58:55;7.10;99.90
7704;DHT22;3894;49.700;10.770;2022-12-29T09:01:21;7.10;99.90
7704;DHT22;3894;49.700;10.770;2022-12-29T09:03:47;7.10;99.90
7704;DHT22;3894;49.700;10.770;2022-12-29T09:06:13;7.10;99.90
7704;DHT22;3894;49.700;10.770;2022-12-29T09:08:39;7.10;99.90
7704;DHT22;3894;49.700;10.770;2022-12-29T09:11:10;7.10;99.90
7704;DHT22;3894;49.700;10.770;2022-12-29T09:13:36;7.20;99.90
7704;DHT22;3894;49.700;10.770;2022-12-29T09:16:02;7.30;99.90
7704;DHT22;3894;49.700;10.770;2022-12-29T09:18:27;7.30;99.90
7704;DHT22;3894;49.700;10.770;2022-12-29T09:20:58;7.30;99.90
7704;DHT22;3894;49.700;10.770;2022-12-29T09:23:24;7.30;99.90
7704;DHT22;3894;49.700;10.770;2022-12-29T09:25:50;7.30;99.90
7704;DHT22;3894;49.700;10.770;2022-12-29T09:28:15;7.30;99.90
7704;DHT22;3894;49.700;10.770;2022-12-29T09:30:41;7.40;99.90
7704;DHT22;3894;49.700;10.770;2022-12-29T09:33:07;7.40;99.90
7704;DHT22;3894;49.700;10.770;2022-12-29T09:35:33;7.40;99.90
7704;DHT22;3894;49.700;10.770;2022-12-29T09:37:58;7.40;99.90
7704;DHT22;3894;49.700;10.770;2022-12-29T09:40:35;7.50;99.90
7704;DHT22;3894;49.700;10.770;2022-12-29T09:43:25;7.50;99.90
7704;DHT22;3894;49.700;10.770;2022-12-29T09:46:17;7.50;99.90
7704;DHT22;3894;49.700;10.770;2022-12-29T09:48:48;7.50;99.90
7704;DHT22;3894;49.700;10.770;2022-12-29T09:51:21;7.50;99.90
7704;DHT22;3894;49.700;10.770;2022-12-29T09:53:57;7.50;99.90
7704;DHT22;3894;49.700;10.770;2022-12-29T09:56:25;7.60;99.90
7704;DHT22;3894;49.700;10.770;2022-12-29T09:58:59;7.60;99.90
7704;DHT22;3894;49.700;10.770;2022-12-29T10:01:36;7.60;99.90
7704;DHT22;3894;49.700;10.770;2022-12-29T10:04:07;7.60;99.90
7704;DHT22;3894;49.700;10.770;2022-12-29T10:09:34;7.60;99.90
7704;DHT22;3894;49.700;10.770;2022-12-29T10:14:41;7.70;99.90
7704;DHT22;3894;49.700;10.770;2022-12-29T10:20:18;7.80;99.90
7704;DHT22;3894;49.700;10.770;2022-12-29T10:22:46;7.90;99.90
7704;DHT22;3894;49.700;10.770;2022-12-29T10:25:19;8.00;99.90
7704;DHT22;3894;49.700;10.770;2022-12-29T10:27:49;8.00;99.90
7704;DHT22;3894;49.700;10.770;2022-12-29T10:30:17;8.10;99.90
7704;DHT22;3894;49.700;10.770;2022-12-29T10:32:54;8.20;99.90
7704;DHT22;3894;49.700;10.770;2022-12-29T10:35:26;8.20;99.90
7704;DHT22;3894;49.700;10.770;2022-12-29T10:41:02;8.20;99.90
7704;DHT22;3894;49.700;10.770;2022-12-29T10:43:35;8.30;99.90
7704;DHT22;3894;49.700;10.770;2022-12-29T10:46:06;8.40;99.90
7704;DHT22;3894;49.700;10.770;2022-12-29T10:48:35;8.50;99.90
7704;DHT22;3894;49.700;10.770;2022-12-29T10:51:08;8.50;99.90
7704;DHT22;3894;49.700;10.770;2022-12-29T10:53:43;8.50;99.90
7704;DHT22;3894;49.700;10.770;2022-12-29T10:58:57;8.50;99.90
7704;DHT22;3894;49.700;10.770;2022-12-29T11:01:34;8.50;99.90
7704;DHT22;3894;49.700;10.770;2022-12-29T11:04:55;8.50;99.90
7704;DHT22;3894;49.700;10.770;2022-12-29T11:07:16;8.50;99.90
7704;DHT22;3894;49.700;10.770;2022-12-29T11:09:43;8.50;99.90
7704;DHT22;3894;49.700;10.770;2022-12-29T11:12:30;8.50;99.90
7704;DHT22;3894;49.700;10.770;2022-12-29T11:18:02;8.50;99.90
7704;DHT22;3894;49.700;10.770;2022-12-29T11:20:38;8.60;99.90
7704;DHT22;3894;49.700;10.770;2022-12-29T11:23:28;8.60;99.90
7704;DHT22;3894;49.700;10.770;2022-12-29T11:28:39;8.80;99.90
7704;DHT22;3894;49.700;10.770;2022-12-29T11:31:06;8.80;99.90
7704;DHT22;3894;49.700;10.770;2022-12-29T11:33:34;8.80;99.90
7704;DHT22;3894;49.700;10.770;2022-12-29T11:36:06;8.80;99.90
7704;DHT22;3894;49.700;10.770;2022-12-29T11:38:56;8.70;99.90
7704;DHT22;3894;49.700;10.770;2022-12-29T11:41:25;8.60;99.90
7704;DHT22;3894;49.700;10.770;2022-12-29T11:43:53;8.60;99.90
7704;DHT22;3894;49.700;10.770;2022-12-29T11:46:25;8.60;99.90
7704;DHT22;3894;49.700;10.770;2022-12-29T11:48:51;8.70;99.90
7704;DHT22;3894;49.700;10.770;2022-12-29T11:51:26;8.80;99.90
7704;DHT22;3894;49.700;10.770;2022-12-29T11:53:56;8.80;99.90
7704;DHT22;3894;49.700;10.770;2022-12-29T11:56:37;8.80;99.90
7704;DHT22;3894;49.700;10.770;2022-12-29T12:01:51;9.00;99.90
7704;DHT22;3894;49.700;10.770;2022-12-29T12:04:18;9.10;99.90
7704;DHT22;3894;49.700;10.770;2022-12-29T12:06:57;9.30;99.90
7704;DHT22;3894;49.700;10.770;2022-12-29T12:09:31;9.40;99.90
7704;DHT22;3894;49.700;10.770;2022-12-29T12:11:59;9.50;99.90
7704;DHT22;3894;49.700;10.770;2022-12-29T12:14:40;9.40;99.90
7704;DHT22;3894;49.700;10.770;2022-12-29T12:17:19;9.40;99.90
7704;DHT22;3894;49.700;10.770;2022-12-29T12:19:54;9.40;99.90
7704;DHT22;3894;49.700;10.770;2022-12-29T12:22:32;9.40;99.90
7704;DHT22;3894;49.700;10.770;2022-12-29T12:25:20;9.50;99.90
7704;DHT22;3894;49.700;10.770;2022-12-29T12:30:20;9.50;99.90
7704;DHT22;3894;49.700;10.770;2022-12-29T12:33:04;9.50;99.90
7704;DHT22;3894;49.700;10.770;2022-12-29T12:44:04;9.40;99.90
7704;DHT22;3894;49.700;10.770;2022-12-29T13:03:59;9.40;99.90
7704;DHT22;3894;49.700;10.770;2022-12-29T13:17:49;9.60;99.90
7704;DHT22;3894;49.700;10.770;2022-12-29T13:20:24;9.70;99.90
7704;DHT22;3894;49.700;10.770;2022-12-29T13:23:19;9.70;99.90
7704;DHT22;3894;49.700;10.770;2022-12-29T13:28:51;9.90;99.90
7704;DHT22;3894;49.700;10.770;2022-12-29T13:31:30;9.90;99.90
7704;DHT22;3894;49.700;10.770;2022-12-29T13:37:02;10.10;99.90
7704;DHT22;3894;49.700;10.770;2022-12-29T13:39:41;10.10;99.90
7704;DHT22;3894;49.700;10.770;2022-12-29T13:42:09;10.10;99.90
7704;DHT22;3894;49.700;10.770;2022-12-29T13:44:43;10.00;99.90
7704;DHT22;3894;49.700;10.770;2022-12-29T13:47:30;10.00;99.90
7704;DHT22;3894;49.700;10.770;2022-12-29T13:49:58;9.90;99.90
7704;DHT22;3894;49.700;10.770;2022-12-29T13:52:44;9.90;99.90
7704;DHT22;3894;49.700;10.770;2022-12-29T13:57:50;9.90;99.90
7704;DHT22;3894;49.700;10.770;2022-12-29T14:00:22;9.90;99.90
7704;DHT22;3894;49.700;10.770;2022-12-29T14:08:48;9.80;99.90
7704;DHT22;3894;49.700;10.770;2022-12-29T14:11:16;9.80;99.90
7704;DHT22;3894;49.700;10.770;2022-12-29T14:13:45;9.80;99.90
7704;DHT22;3894;49.700;10.770;2022-12-29T14:18:55;9.80;99.90
7704;DHT22;3894;49.700;10.770;2022-12-29T14:21:24;9.80;99.90
7704;DHT22;3894;49.700;10.770;2022-12-29T14:23:53;9.80;99.90
7704;DHT22;3894;49.700;10.770;2022-12-29T14:31:46;9.60;99.90
7704;DHT22;3894;49.700;10.770;2022-12-29T14:36:42;9.50;99.90
7704;DHT22;3894;49.700;10.770;2022-12-29T14:39:42;9.50;99.90
7704;DHT22;3894;49.700;10.770;2022-12-29T14:44:47;9.40;99.90
7704;DHT22;3894;49.700;10.770;2022-12-29T14:52:59;9.40;99.90
7704;DHT22;3894;49.700;10.770;2022-12-29T14:55:41;9.40;99.90
7704;DHT22;3894;49.700;10.770;2022-12-29T14:58:20;9.40;99.90
7704;DHT22;3894;49.700;10.770;2022-12-29T15:00:48;9.30;99.90
7704;DHT22;3894;49.700;10.770;2022-12-29T15:03:28;9.40;99.90
7704;DHT22;3894;49.700;10.770;2022-12-29T15:05:58;9.40;99.90
7704;DHT22;3894;49.700;10.770;2022-12-29T15:08:32;9.60;99.90
7704;DHT22;3894;49.700;10.770;2022-12-29T15:11:03;9.70;99.90
7704;DHT22;3894;49.700;10.770;2022-12-29T15:13:38;9.60;99.90
7704;DHT22;3894;49.700;10.770;2022-12-29T15:16:05;9.50;99.90
7704;DHT22;3894;49.700;10.770;2022-12-29T15:18:45;9.60;99.90
7704;DHT22;3894;49.700;10.770;2022-12-29T15:21:13;9.50;99.90
7704;DHT22;3894;49.700;10.770;2022-12-29T15:23:43;9.50;99.90
7704;DHT22;3894;49.700;10.770;2022-12-29T15:26:09;9.40;99.90
7704;DHT22;3894;49.700;10.770;2022-12-29T15:28:40;9.30;99.90
7704;DHT22;3894;49.700;10.770;2022-12-29T15:31:12;9.30;99.90
7704;DHT22;3894;49.700;10.770;2022-12-29T15:33:43;9.20;99.90
7704;DHT22;3894;49.700;10.770;2022-12-29T15:36:13;9.20;99.90
7704;DHT22;3894;49.700;10.770;2022-12-29T15:38:39;9.20;99.90
7704;DHT22;3894;49.700;10.770;2022-12-29T15:46:32;9.00;99.90
7704;DHT22;3894;49.700;10.770;2022-12-29T15:48:57;9.00;99.90
7704;DHT22;3894;49.700;10.770;2022-12-29T15:51:29;9.00;99.90
7704;DHT22;3894;49.700;10.770;2022-12-29T15:53:56;8.90;99.90
7704;DHT22;3894;49.700;10.770;2022-12-29T15:56:22;8.90;99.90
7704;DHT22;3894;49.700;10.770;2022-12-29T15:58:50;8.90;99.90
7704;DHT22;3894;49.700;10.770;2022-12-29T16:01:33;8.90;99.90
7704;DHT22;3894;49.700;10.770;2022-12-29T16:04:03;8.90;99.90
7704;DHT22;3894;49.700;10.770;2022-12-29T16:06:35;9.00;99.90
7704;DHT22;3894;49.700;10.770;2022-12-29T16:11:40;8.90;99.90
7704;DHT22;3894;49.700;10.770;2022-12-29T16:14:15;8.90;99.90
7704;DHT22;3894;49.700;10.770;2022-12-29T16:16:43;8.90;99.90
7704;DHT22;3894;49.700;10.770;2022-12-29T16:21:55;8.90;99.90
7704;DHT22;3894;49.700;10.770;2022-12-29T16:24:24;8.90;99.90
7704;DHT22;3894;49.700;10.770;2022-12-29T16:27:07;8.90;99.90
7704;DHT22;3894;49.700;10.770;2022-12-29T16:29:34;8.90;99.90
7704;DHT22;3894;49.700;10.770;2022-12-29T16:32:01;8.90;99.90
7704;DHT22;3894;49.700;10.770;2022-12-29T16:34:47;8.90;99.90
7704;DHT22;3894;49.700;10.770;2022-12-29T16:37:33;8.90;99.90
7704;DHT22;3894;49.700;10.770;2022-12-29T16:40:26;8.90;99.90
7704;DHT22;3894;49.700;10.770;2022-12-29T16:43:01;8.90;99.90
7704;DHT22;3894;49.700;10.770;2022-12-29T16:50:42;8.90;99.90
7704;DHT22;3894;49.700;10.770;2022-12-29T16:53:29;8.90;99.90
7704;DHT22;3894;49.700;10.770;2022-12-29T16:55:58;8.80;99.90
7704;DHT22;3894;49.700;10.770;2022-12-29T16:58:27;8.70;99.90
7704;DHT22;3894;49.700;10.770;2022-12-29T17:00:57;8.60;99.90
7704;DHT22;3894;49.700;10.770;2022-12-29T17:03:33;8.60;99.90
7704;DHT22;3894;49.700;10.770;2022-12-29T17:06:00;8.50;99.90
7704;DHT22;3894;49.700;10.770;2022-12-29T17:08:25;8.50;99.90
7704;DHT22;3894;49.700;10.770;2022-12-29T17:10:54;8.40;99.90
7704;DHT22;3894;49.700;10.770;2022-12-29T17:13:39;8.40;99.90
7704;DHT22;3894;49.700;10.770;2022-12-29T17:16:06;8.30;99.90
7704;DHT22;3894;49.700;10.770;2022-12-29T17:18:33;8.30;99.90
7704;DHT22;3894;49.700;10.770;2022-12-29T17:20:59;8.30;99.90
7704;DHT22;3894;49.700;10.770;2022-12-29T17:23:25;8.30;99.90
7704;DHT22;3894;49.700;10.770;2022-12-29T17:25:51;8.20;99.90
7704;DHT22;3894;49.700;10.770;2022-12-29T17:28:24;8.20;99.90
7704;DHT22;3894;49.700;10.770;2022-12-29T17:31:00;8.20;99.90
7704;DHT22;3894;49.700;10.770;2022-12-29T17:33:26;8.20;99.90
7704;DHT22;3894;49.700;10.770;2022-12-29T17:35:52;8.10;99.90
7704;DHT22;3894;49.700;10.770;2022-12-29T17:40:47;8.00;99.90
7704;DHT22;3894;49.700;10.770;2022-12-29T17:43:14;8.00;99.90
7704;DHT22;3894;49.700;10.770;2022-12-29T17:45:41;7.90;99.90
7704;DHT22;3894;49.700;10.770;2022-12-29T17:48:12;7.90;99.90
7704;DHT22;3894;49.700;10.770;2022-12-29T17:50:37;7.90;99.90
7704;DHT22;3894;49.700;10.770;2022-12-29T17:53:05;7.90;99.90
7704;DHT22;3894;49.700;10.770;2022-12-29T17:55:32;7.80;99.90
7704;DHT22;3894;49.700;10.770;2022-12-29T17:57:57;7.80;99.90
7704;DHT22;3894;49.700;10.770;2022-12-29T18:00:29;7.70;99.90
7704;DHT22;3894;49.700;10.770;2022-12-29T18:02:58;7.70;99.90
7704;DHT22;3894;49.700;10.770;2022-12-29T18:05:26;7.70;99.90
7704;DHT22;3894;49.700;10.770;2022-12-29T18:07:52;7.60;99.90
7704;DHT22;3894;49.700;10.770;2022-12-29T18:10:19;7.60;99.90
7704;DHT22;3894;49.700;10.770;2022-12-29T18:12:46;7.60;99.90
7704;DHT22;3894;49.700;10.770;2022-12-29T18:15:33;7.50;99.90
7704;DHT22;3894;49.700;10.770;2022-12-29T18:18:17;7.50;99.90
7704;DHT22;3894;49.700;10.770;2022-12-29T18:20:43;7.40;99.90
7704;DHT22;3894;49.700;10.770;2022-12-29T18:23:27;7.40;99.90
7704;DHT22;3894;49.700;10.770;2022-12-29T18:28:37;7.30;99.90
7704;DHT22;3894;49.700;10.770;2022-12-29T18:31:03;7.30;99.90
7704;DHT22;3894;49.700;10.770;2022-12-29T18:33:29;7.20;99.90
7704;DHT22;3894;49.700;10.770;2022-12-29T18:35:57;7.20;99.90
7704;DHT22;3894;49.700;10.770;2022-12-29T18:38:23;7.10;99.90
7704;DHT22;3894;49.700;10.770;2022-12-29T18:40:49;7.10;99.90
7704;DHT22;3894;49.700;10.770;2022-12-29T18:43:15;7.10;99.90